createdAt,value
2022-08-17T00:02:26.058Z,11.07
2022-08-17T00:07:29.888Z,11.55
2022-08-17T00:12:41.740Z,11.43
2022-08-17T00:17:49.050Z,13.15
2022-08-17T00:23:02.455Z,11.93
2022-08-17T00:28:05.969Z,10.90
2022-08-17T00:33:16.334Z,11.32
2022-08-17T00:38:19.988Z,10.73
2022-08-17T00:43:33.970Z,10.88
2022-08-17T00:48:37.596Z,13.23
2022-08-17T00:53:44.379Z,13.07
2022-08-17T00:58:48.253Z,18.75
2022-08-17T01:04:00.053Z,12.82
2022-08-17T01:09:04.331Z,11.18
2022-08-17T01:14:09.719Z,15.75
2022-08-17T01:19:19.002Z,11.40
2022-08-17T01:24:22.291Z,11.50
2022-08-17T01:29:26.628Z,12.53
2022-08-17T01:40:26.419Z,12.15
2022-08-17T01:45:34.475Z,14.60
2022-08-17T01:50:38.838Z,11.25
2022-08-17T01:55:49.612Z,14.93
2022-08-17T02:01:00.913Z,13.48
2022-08-17T02:06:27.260Z,11.85
2022-08-17T02:11:29.999Z,13.68
2022-08-17T02:16:37.575Z,15.25
2022-08-17T02:21:42.032Z,11.30
2022-08-17T02:26:44.808Z,14.23
2022-08-17T02:31:48.998Z,12.63
2022-08-17T02:36:53.814Z,11.93
2022-08-17T02:42:03.469Z,12.93
2022-08-17T02:47:06.941Z,13.65
2022-08-17T02:52:09.894Z,11.48
2022-08-17T02:57:12.719Z,10.50
2022-08-17T03:02:15.504Z,12.15
2022-08-17T03:07:18.571Z,9.43
2022-08-17T03:12:21.216Z,7.10
2022-08-17T03:17:23.917Z,8.38
2022-08-17T03:22:36.855Z,9.23
2022-08-17T03:27:41.976Z,9.80
2022-08-17T03:32:48.191Z,9.18
2022-08-17T03:38:00.434Z,10.25
2022-08-17T03:43:10.179Z,8.25
2022-08-17T03:48:31.727Z,7.00
2022-08-17T03:53:53.172Z,7.53
2022-08-17T03:58:56.104Z,8.45
2022-08-17T04:03:58.753Z,9.43
2022-08-17T04:09:01.492Z,9.32
2022-08-17T04:14:05.630Z,9.23
2022-08-17T04:19:08.576Z,11.00
2022-08-17T04:24:11.306Z,12.05
2022-08-17T04:29:14.655Z,10.25
2022-08-17T04:34:19.802Z,10.52
2022-08-17T04:39:25.823Z,9.95
2022-08-17T04:44:37.409Z,10.77
2022-08-17T04:49:40.714Z,9.35
2022-08-17T04:54:43.411Z,10.27
2022-08-17T04:59:46.078Z,10.15
2022-08-17T05:04:48.695Z,11.30
2022-08-17T05:09:51.415Z,12.40
2022-08-17T05:14:54.128Z,14.43
2022-08-17T05:19:56.833Z,11.40
2022-08-17T05:24:59.453Z,9.82
2022-08-17T05:30:05.725Z,9.55
2022-08-17T05:35:10.261Z,9.37
2022-08-17T05:40:14.217Z,8.60
2022-08-17T05:45:32.128Z,10.55
2022-08-17T05:50:51.977Z,10.43
2022-08-17T05:56:29.431Z,11.80
2022-08-17T06:01:45.026Z,7.43
2022-08-17T06:06:55.724Z,8.18
2022-08-17T06:12:14.367Z,7.50
2022-08-17T06:17:25.336Z,7.90
2022-08-17T06:22:34.059Z,10.60
2022-08-17T06:27:44.046Z,7.35
2022-08-17T06:32:49.977Z,11.32
2022-08-17T06:37:58.503Z,10.07
2022-08-17T06:43:22.363Z,10.35
2022-08-17T06:48:36.607Z,8.95
2022-08-17T06:53:46.509Z,10.63
2022-08-17T06:58:50.431Z,11.15
2022-08-17T07:09:26.823Z,11.38
2022-08-17T07:14:39.185Z,10.50
2022-08-17T07:19:46.209Z,10.73
2022-08-17T07:25:01.766Z,8.35
2022-08-17T07:30:11.304Z,11.18
2022-08-17T07:35:40.856Z,10.45
2022-08-17T07:41:13.199Z,12.73
2022-08-17T07:46:46.370Z,10.98
2022-08-17T07:51:49.281Z,10.70
2022-08-17T07:56:58.286Z,7.57
2022-08-17T08:02:17.017Z,20.83
2022-08-17T08:07:21.486Z,19.33
2022-08-17T08:12:30.579Z,11.55
2022-08-17T08:17:51.011Z,9.00
2022-08-17T08:23:35.708Z,7.13
2022-08-17T08:28:52.636Z,12.40
2022-08-17T08:35:00.659Z,8.90
2022-08-17T08:39:52.017Z,10.52
2022-08-17T08:45:25.162Z,11.15
2022-08-17T08:55:43.348Z,9.48
2022-08-17T09:06:04.637Z,9.80
2022-08-17T09:12:01.238Z,11.43
2022-08-17T09:21:58.634Z,8.48
2022-08-17T09:31:56.057Z,10.13
2022-08-17T09:41:49.611Z,10.15
2022-08-17T09:51:45.894Z,8.15
2022-08-17T09:57:31.381Z,8.23
2022-08-17T10:12:53.223Z,8.38
2022-08-17T10:18:13.595Z,10.13
2022-08-17T10:33:53.052Z,10.18
2022-08-17T10:56:47.732Z,10.52
2022-08-17T11:08:13.237Z,6.18
2022-08-17T11:18:40.154Z,10.88
2022-08-17T11:28:36.674Z,8.40
2022-08-17T11:33:42.619Z,7.75
2022-08-17T11:39:02.099Z,11.00
2022-08-17T11:44:11.429Z,8.18
2022-08-17T11:49:49.350Z,7.93
2022-08-17T11:54:52.519Z,7.38
2022-08-17T12:00:00.631Z,8.95
2022-08-17T12:05:13.234Z,6.63
2022-08-17T12:10:21.279Z,8.75
2022-08-17T12:15:38.182Z,8.23
2022-08-17T12:20:45.287Z,6.63
2022-08-17T12:26:08.683Z,7.35
2022-08-17T12:31:35.549Z,9.43
2022-08-17T12:36:41.088Z,7.68
2022-08-17T12:41:48.462Z,6.72
2022-08-17T12:46:56.325Z,8.68
2022-08-17T13:05:39.842Z,6.93
2022-08-17T13:17:11.240Z,10.38
2022-08-17T13:22:44.256Z,10.18
2022-08-17T13:27:51.465Z,11.30
2022-08-17T13:40:12.226Z,6.03
2022-08-17T13:52:02.826Z,7.78
2022-08-17T13:57:08.330Z,6.15
2022-08-17T14:02:12.391Z,9.45
2022-08-17T14:07:16.828Z,5.88
2022-08-17T14:12:23.047Z,5.45
2022-08-17T14:17:27.559Z,5.22
2022-08-17T14:22:33.146Z,9.90
2022-08-17T14:27:47.479Z,8.95
2022-08-17T18:57:33.710Z,13.98
2022-08-17T19:02:51.441Z,7.72
2022-08-17T19:07:55.396Z,11.63
2022-08-17T19:13:12.890Z,12.80
2022-08-17T19:18:29.782Z,9.73
2022-08-17T19:23:53.811Z,9.40
2022-08-17T19:29:07.704Z,15.25
2022-08-17T19:34:16.747Z,9.07
2022-08-17T19:39:57.519Z,10.00
2022-08-17T19:45:37.991Z,9.65
2022-08-17T19:50:55.882Z,9.68
2022-08-17T19:56:32.525Z,9.05
2022-08-17T20:02:01.057Z,9.90
2022-08-17T20:07:10.125Z,10.07
2022-08-17T20:12:24.254Z,14.63
2022-08-17T20:17:38.857Z,15.60
2022-08-17T20:23:06.555Z,14.25
2022-08-17T20:28:35.998Z,12.55
2022-08-17T20:33:39.326Z,12.02
2022-08-17T20:38:46.855Z,14.68
2022-08-17T20:43:56.152Z,16.73
2022-08-17T20:49:25.930Z,15.45
2022-08-17T20:54:52.006Z,12.15
2022-08-17T20:59:56.123Z,12.70
2022-08-17T21:05:02.537Z,14.85
2022-08-17T21:10:18.832Z,17.08
2022-08-17T21:15:44.642Z,14.65
2022-08-17T21:21:06.216Z,9.45
2022-08-17T21:26:12.688Z,15.05
2022-08-17T21:31:39.186Z,14.55
2022-08-17T21:36:46.829Z,14.77
2022-08-17T21:41:53.938Z,14.18
2022-08-17T21:47:13.833Z,15.07
2022-08-17T21:52:21.064Z,16.10
2022-08-17T21:57:29.519Z,12.82
2022-08-17T22:02:38.104Z,14.05
2022-08-17T22:07:46.084Z,16.17
2022-08-17T22:13:16.579Z,15.00
2022-08-17T22:18:26.238Z,15.50
2022-08-17T22:23:52.403Z,17.20
2022-08-17T22:28:59.534Z,12.15
2022-08-17T22:34:05.478Z,14.07
2022-08-17T22:39:11.445Z,14.45
2022-08-17T22:44:26.791Z,12.77
2022-08-17T22:49:53.133Z,12.35
2022-08-17T22:55:33.484Z,12.07
2022-08-17T23:00:43.276Z,12.48
2022-08-17T23:06:08.964Z,13.27
2022-08-17T23:11:11.989Z,15.10
2022-08-17T23:16:15.821Z,13.70
2022-08-17T23:21:26.542Z,13.77
2022-08-17T23:26:30.999Z,16.02
2022-08-17T23:31:38.084Z,14.07
2022-08-17T23:36:42.944Z,12.13
2022-08-17T23:41:47.701Z,14.88
2022-08-17T23:46:54.786Z,14.88
2022-08-17T23:52:00.391Z,12.98
2022-08-17T23:57:05.689Z,12.07
